sensor_id;sensor_type;location;lat;lon;timestamp;P1;durP1;ratioP1;P2;durP2;ratioP2
50086;SDS011;35967;50.718;7.050;2022-11-15T00:08:28;12.77;;;5.27;;
50086;SDS011;35967;50.718;7.050;2022-11-15T00:18:52;13.27;;;4.90;;
50086;SDS011;35967;50.718;7.050;2022-11-15T00:29:13;12.17;;;4.87;;
50086;SDS011;35967;50.718;7.050;2022-11-15T00:39:37;10.70;;;4.50;;
50086;SDS011;35967;50.718;7.050;2022-11-15T00:49:59;11.13;;;4.30;;
50086;SDS011;35967;50.718;7.050;2022-11-15T01:00:22;8.87;;;4.50;;
50086;SDS011;35967;50.718;7.050;2022-11-15T01:10:44;10.37;;;4.10;;
50086;SDS011;35967;50.718;7.050;2022-11-15T01:21:08;9.20;;;4.30;;
50086;SDS011;35967;50.718;7.050;2022-11-15T01:31:30;10.47;;;4.63;;
50086;SDS011;35967;50.718;7.050;2022-11-15T01:41:53;9.60;;;4.83;;
50086;SDS011;35967;50.718;7.050;2022-11-15T01:52:17;9.47;;;5.10;;
50086;SDS011;35967;50.718;7.050;2022-11-15T02:02:43;11.03;;;4.67;;
50086;SDS011;35967;50.718;7.050;2022-11-15T02:13:04;9.60;;;5.20;;
50086;SDS011;35967;50.718;7.050;2022-11-15T02:23:46;8.13;;;4.73;;
50086;SDS011;35967;50.718;7.050;2022-11-15T02:34:32;9.03;;;4.33;;
50086;SDS011;35967;50.718;7.050;2022-11-15T02:45:04;9.00;;;4.97;;
50086;SDS011;35967;50.718;7.050;2022-11-15T02:55:33;7.67;;;4.20;;
50086;SDS011;35967;50.718;7.050;2022-11-15T03:05:56;7.90;;;4.30;;
50086;SDS011;35967;50.718;7.050;2022-11-15T03:16:26;7.37;;;3.10;;
50086;SDS011;35967;50.718;7.050;2022-11-15T03:26:52;8.77;;;3.83;;
50086;SDS011;35967;50.718;7.050;2022-11-15T03:37:18;7.83;;;4.37;;
50086;SDS011;35967;50.718;7.050;2022-11-15T03:47:43;9.73;;;5.27;;
50086;SDS011;35967;50.718;7.050;2022-11-15T03:58:11;11.53;;;5.60;;
50086;SDS011;35967;50.718;7.050;2022-11-15T04:08:33;8.47;;;4.77;;
50086;SDS011;35967;50.718;7.050;2022-11-15T04:18:56;8.97;;;4.13;;
50086;SDS011;35967;50.718;7.050;2022-11-15T04:29:32;5.37;;;3.53;;
50086;SDS011;35967;50.718;7.050;2022-11-15T04:39:58;4.97;;;2.53;;
50086;SDS011;35967;50.718;7.050;2022-11-15T04:50:21;3.40;;;1.63;;
50086;SDS011;35967;50.718;7.050;2022-11-15T05:00:44;4.70;;;2.83;;
50086;SDS011;35967;50.718;7.050;2022-11-15T05:11:05;5.07;;;3.00;;
50086;SDS011;35967;50.718;7.050;2022-11-15T05:21:28;3.27;;;1.53;;
50086;SDS011;35967;50.718;7.050;2022-11-15T05:31:50;2.73;;;1.20;;
50086;SDS011;35967;50.718;7.050;2022-11-15T05:42:14;3.20;;;0.90;;
50086;SDS011;35967;50.718;7.050;2022-11-15T05:52:36;1.67;;;0.77;;
50086;SDS011;35967;50.718;7.050;2022-11-15T06:03:00;3.07;;;0.60;;
50086;SDS011;35967;50.718;7.050;2022-11-15T06:13:21;2.57;;;0.70;;
50086;SDS011;35967;50.718;7.050;2022-11-15T06:23:44;2.30;;;1.20;;
50086;SDS011;35967;50.718;7.050;2022-11-15T06:34:06;2.87;;;1.70;;
50086;SDS011;35967;50.718;7.050;2022-11-15T06:44:29;4.07;;;2.10;;
50086;SDS011;35967;50.718;7.050;2022-11-15T06:54:51;5.10;;;1.87;;
50086;SDS011;35967;50.718;7.050;2022-11-15T07:05:14;7.13;;;1.70;;
50086;SDS011;35967;50.718;7.050;2022-11-15T07:15:37;6.17;;;2.20;;
50086;SDS011;35967;50.718;7.050;2022-11-15T07:26:00;7.13;;;2.10;;
50086;SDS011;35967;50.718;7.050;2022-11-15T07:36:21;4.53;;;1.93;;
50086;SDS011;35967;50.718;7.050;2022-11-15T07:46:44;3.93;;;1.37;;
50086;SDS011;35967;50.718;7.050;2022-11-15T07:57:06;2.37;;;0.90;;
50086;SDS011;35967;50.718;7.050;2022-11-15T08:07:31;8.20;;;1.20;;
50086;SDS011;35967;50.718;7.050;2022-11-15T08:17:53;3.77;;;0.80;;
50086;SDS011;35967;50.718;7.050;2022-11-15T08:28:17;3.23;;;0.70;;
50086;SDS011;35967;50.718;7.050;2022-11-15T08:38:39;4.27;;;0.93;;
50086;SDS011;35967;50.718;7.050;2022-11-15T08:49:02;2.43;;;0.40;;
50086;SDS011;35967;50.718;7.050;2022-11-15T08:59:24;0.77;;;0.30;;
50086;SDS011;35967;50.718;7.050;2022-11-15T09:09:48;1.37;;;0.40;;
50086;SDS011;35967;50.718;7.050;2022-11-15T09:20:10;3.27;;;0.40;;
50086;SDS011;35967;50.718;7.050;2022-11-15T09:30:34;2.97;;;0.40;;
50086;SDS011;35967;50.718;7.050;2022-11-15T09:40:58;1.97;;;0.50;;
50086;SDS011;35967;50.718;7.050;2022-11-15T09:51:38;1.73;;;0.30;;
50086;SDS011;35967;50.718;7.050;2022-11-15T10:01:50;4.30;;;0.40;;
50086;SDS011;35967;50.718;7.050;2022-11-15T10:12:00;1.10;;;0.27;;
50086;SDS011;35967;50.718;7.050;2022-11-15T10:22:06;2.80;;;0.40;;
50086;SDS011;35967;50.718;7.050;2022-11-15T10:32:21;1.07;;;0.30;;
50086;SDS011;35967;50.718;7.050;2022-11-15T10:42:25;1.97;;;0.60;;
50086;SDS011;35967;50.718;7.050;2022-11-15T10:52:31;6.63;;;1.50;;
50086;SDS011;35967;50.718;7.050;2022-11-15T11:02:37;2.47;;;0.60;;
50086;SDS011;35967;50.718;7.050;2022-11-15T11:12:43;0.87;;;0.30;;
50086;SDS011;35967;50.718;7.050;2022-11-15T11:33:39;4.27;;;0.50;;
50086;SDS011;35967;50.718;7.050;2022-11-15T11:43:57;1.30;;;0.30;;
50086;SDS011;35967;50.718;7.050;2022-11-15T11:54:13;1.87;;;0.30;;
50086;SDS011;35967;50.718;7.050;2022-11-15T12:04:24;2.20;;;0.40;;
50086;SDS011;35967;50.718;7.050;2022-11-15T12:14:34;3.53;;;0.50;;
50086;SDS011;35967;50.718;7.050;2022-11-15T12:24:43;2.77;;;0.60;;
50086;SDS011;35967;50.718;7.050;2022-11-15T12:34:52;5.70;;;0.53;;
50086;SDS011;35967;50.718;7.050;2022-11-15T12:44:57;2.67;;;0.70;;
50086;SDS011;35967;50.718;7.050;2022-11-15T12:55:08;3.53;;;0.80;;
50086;SDS011;35967;50.718;7.050;2022-11-15T13:16:12;4.77;;;1.00;;
50086;SDS011;35967;50.718;7.050;2022-11-15T13:26:22;5.23;;;1.10;;
50086;SDS011;35967;50.718;7.050;2022-11-15T13:36:27;5.83;;;0.97;;
50086;SDS011;35967;50.718;7.050;2022-11-15T13:46:34;3.88;;;1.00;;
50086;SDS011;35967;50.718;7.050;2022-11-15T13:56:39;4.47;;;1.13;;
50086;SDS011;35967;50.718;7.050;2022-11-15T14:06:44;3.23;;;0.93;;
50086;SDS011;35967;50.718;7.050;2022-11-15T14:16:51;4.77;;;1.10;;
50086;SDS011;35967;50.718;7.050;2022-11-15T14:26:55;7.90;;;0.90;;
50086;SDS011;35967;50.718;7.050;2022-11-15T14:36:59;3.40;;;0.83;;
50086;SDS011;35967;50.718;7.050;2022-11-15T14:47:03;2.63;;;0.60;;
50086;SDS011;35967;50.718;7.050;2022-11-15T14:57:07;2.47;;;0.80;;
50086;SDS011;35967;50.718;7.050;2022-11-15T15:07:10;3.23;;;0.80;;
50086;SDS011;35967;50.718;7.050;2022-11-15T15:17:15;3.00;;;1.20;;
50086;SDS011;35967;50.718;7.050;2022-11-15T15:27:19;5.53;;;0.70;;
50086;SDS011;35967;50.718;7.050;2022-11-15T15:37:23;5.30;;;0.80;;
50086;SDS011;35967;50.718;7.050;2022-11-15T15:47:28;2.33;;;0.90;;
50086;SDS011;35967;50.718;7.050;2022-11-15T15:57:33;3.27;;;0.70;;
50086;SDS011;35967;50.718;7.050;2022-11-15T16:07:36;2.23;;;0.80;;
50086;SDS011;35967;50.718;7.050;2022-11-15T16:17:43;3.47;;;1.00;;
50086;SDS011;35967;50.718;7.050;2022-11-15T16:27:49;3.22;;;0.80;;
50086;SDS011;35967;50.718;7.050;2022-11-15T16:37:53;4.30;;;0.90;;
50086;SDS011;35967;50.718;7.050;2022-11-15T16:47:56;4.57;;;1.10;;
50086;SDS011;35967;50.718;7.050;2022-11-15T16:58:01;3.20;;;1.30;;
50086;SDS011;35967;50.718;7.050;2022-11-15T17:08:04;4.17;;;1.53;;
50086;SDS011;35967;50.718;7.050;2022-11-15T17:18:09;3.60;;;1.20;;
50086;SDS011;35967;50.718;7.050;2022-11-15T17:28:13;3.53;;;1.33;;
50086;SDS011;35967;50.718;7.050;2022-11-15T17:38:17;2.83;;;1.33;;
50086;SDS011;35967;50.718;7.050;2022-11-15T17:48:20;3.40;;;1.60;;
50086;SDS011;35967;50.718;7.050;2022-11-15T17:58:25;5.80;;;1.90;;
50086;SDS011;35967;50.718;7.050;2022-11-15T18:08:28;6.70;;;2.13;;
50086;SDS011;35967;50.718;7.050;2022-11-15T18:18:32;3.87;;;1.30;;
50086;SDS011;35967;50.718;7.050;2022-11-15T18:28:38;5.17;;;1.80;;
50086;SDS011;35967;50.718;7.050;2022-11-15T18:38:43;4.87;;;1.70;;
50086;SDS011;35967;50.718;7.050;2022-11-15T18:48:47;5.27;;;1.97;;
50086;SDS011;35967;50.718;7.050;2022-11-15T18:58:53;3.80;;;2.00;;
50086;SDS011;35967;50.718;7.050;2022-11-15T19:08:57;4.03;;;2.10;;
50086;SDS011;35967;50.718;7.050;2022-11-15T19:19:03;5.87;;;2.13;;
50086;SDS011;35967;50.718;7.050;2022-11-15T19:29:08;8.70;;;2.00;;
50086;SDS011;35967;50.718;7.050;2022-11-15T19:39:13;4.97;;;2.00;;
50086;SDS011;35967;50.718;7.050;2022-11-15T19:49:18;6.70;;;1.90;;
50086;SDS011;35967;50.718;7.050;2022-11-15T19:59:23;4.13;;;2.00;;
50086;SDS011;35967;50.718;7.050;2022-11-15T20:09:27;7.40;;;2.40;;
50086;SDS011;35967;50.718;7.050;2022-11-15T20:19:31;5.07;;;2.57;;
50086;SDS011;35967;50.718;7.050;2022-11-15T20:29:34;6.47;;;2.40;;
50086;SDS011;35967;50.718;7.050;2022-11-15T20:39:41;5.90;;;1.97;;
50086;SDS011;35967;50.718;7.050;2022-11-15T20:49:44;6.20;;;2.10;;
50086;SDS011;35967;50.718;7.050;2022-11-15T20:59:49;5.17;;;2.33;;
50086;SDS011;35967;50.718;7.050;2022-11-15T21:09:52;8.20;;;2.80;;
50086;SDS011;35967;50.718;7.050;2022-11-15T21:20:13;6.03;;;2.43;;
50086;SDS011;35967;50.718;7.050;2022-11-15T21:30:17;5.10;;;2.60;;
50086;SDS011;35967;50.718;7.050;2022-11-15T21:40:21;5.53;;;1.97;;
50086;SDS011;35967;50.718;7.050;2022-11-15T21:50:25;3.90;;;2.03;;
50086;SDS011;35967;50.718;7.050;2022-11-15T22:00:29;3.33;;;1.97;;
50086;SDS011;35967;50.718;7.050;2022-11-15T22:10:49;4.80;;;2.37;;
50086;SDS011;35967;50.718;7.050;2022-11-15T22:20:55;5.83;;;3.13;;
50086;SDS011;35967;50.718;7.050;2022-11-15T22:31:00;8.13;;;2.80;;
50086;SDS011;35967;50.718;7.050;2022-11-15T22:41:05;5.93;;;2.97;;
50086;SDS011;35967;50.718;7.050;2022-11-15T22:51:08;6.60;;;2.70;;
50086;SDS011;35967;50.718;7.050;2022-11-15T23:01:17;7.83;;;3.40;;
50086;SDS011;35967;50.718;7.050;2022-11-15T23:11:22;8.93;;;3.50;;
50086;SDS011;35967;50.718;7.050;2022-11-15T23:21:50;6.27;;;3.60;;
50086;SDS011;35967;50.718;7.050;2022-11-15T23:32:11;8.63;;;5.03;;
50086;SDS011;35967;50.718;7.050;2022-11-15T23:42:33;7.17;;;4.90;;
50086;SDS011;35967;50.718;7.050;2022-11-15T23:52:36;7.10;;;4.70;;
